sensor_id;sensor_type;location;lat;lon;timestamp;pressure;altitude;pressure_sealevel;temperature;humidity
11499;BME280;5806;48.748;9.278;2023-07-29T00:02:02;100181.62;;;18.60;100.00
11499;BME280;5806;48.748;9.278;2023-07-29T00:04:31;100183.43;;;18.67;100.00
11499;BME280;5806;48.748;9.278;2023-07-29T00:06:58;100188.91;;;18.69;100.00
11499;BME280;5806;48.748;9.278;2023-07-29T00:09:26;100184.81;;;18.67;100.00
11499;BME280;5806;48.748;9.278;2023-07-29T00:11:53;100183.84;;;18.60;100.00
11499;BME280;5806;48.748;9.278;2023-07-29T00:14:21;100178.50;;;18.64;100.00
11499;BME280;5806;48.748;9.278;2023-07-29T00:16:48;100170.77;;;18.63;100.00
11499;BME280;5806;48.748;9.278;2023-07-29T00:19:16;100173.02;;;18.61;100.00
11499;BME280;5806;48.748;9.278;2023-07-29T00:21:44;100172.41;;;18.64;100.00
11499;BME280;5806;48.748;9.278;2023-07-29T00:24:11;100167.28;;;18.71;100.00
11499;BME280;5806;48.748;9.278;2023-07-29T00:26:38;100168.44;;;18.68;100.00
11499;BME280;5806;48.748;9.278;2023-07-29T00:29:07;100159.63;;;18.66;100.00
11499;BME280;5806;48.748;9.278;2023-07-29T00:31:35;100160.00;;;18.62;100.00
11499;BME280;5806;48.748;9.278;2023-07-29T00:34:02;100155.26;;;18.62;100.00
11499;BME280;5806;48.748;9.278;2023-07-29T00:36:30;100163.07;;;18.60;100.00
11499;BME280;5806;48.748;9.278;2023-07-29T00:38:57;100160.19;;;18.65;100.00
11499;BME280;5806;48.748;9.278;2023-07-29T00:41:25;100162.77;;;18.62;100.00
11499;BME280;5806;48.748;9.278;2023-07-29T00:43:53;100160.55;;;18.61;100.00
11499;BME280;5806;48.748;9.278;2023-07-29T00:46:20;100160.05;;;18.59;100.00
11499;BME280;5806;48.748;9.278;2023-07-29T00:48:49;100162.19;;;18.62;100.00
11499;BME280;5806;48.748;9.278;2023-07-29T00:51:16;100160.05;;;18.59;100.00
11499;BME280;5806;48.748;9.278;2023-07-29T00:53:44;100160.11;;;18.57;100.00
11499;BME280;5806;48.748;9.278;2023-07-29T00:56:12;100158.39;;;18.58;100.00
11499;BME280;5806;48.748;9.278;2023-07-29T00:58:40;100152.30;;;18.59;100.00
11499;BME280;5806;48.748;9.278;2023-07-29T01:01:08;100153.07;;;18.62;100.00
11499;BME280;5806;48.748;9.278;2023-07-29T01:03:36;100150.00;;;18.63;100.00
11499;BME280;5806;48.748;9.278;2023-07-29T01:06:08;100151.33;;;18.66;100.00
11499;BME280;5806;48.748;9.278;2023-07-29T01:11:11;100135.37;;;18.60;100.00
11499;BME280;5806;48.748;9.278;2023-07-29T01:13:57;100134.70;;;18.52;100.00
11499;BME280;5806;48.748;9.278;2023-07-29T01:16:33;100125.57;;;18.52;100.00
11499;BME280;5806;48.748;9.278;2023-07-29T01:19:01;100123.94;;;18.51;100.00
11499;BME280;5806;48.748;9.278;2023-07-29T01:21:29;100129.42;;;18.53;100.00
11499;BME280;5806;48.748;9.278;2023-07-29T01:23:59;100129.42;;;18.53;100.00
11499;BME280;5806;48.748;9.278;2023-07-29T01:26:26;100120.97;;;18.61;100.00
11499;BME280;5806;48.748;9.278;2023-07-29T01:28:57;100124.70;;;18.67;100.00
11499;BME280;5806;48.748;9.278;2023-07-29T01:31:33;100117.50;;;18.66;100.00
11499;BME280;5806;48.748;9.278;2023-07-29T01:34:20;100115.92;;;18.63;100.00
11499;BME280;5806;48.748;9.278;2023-07-29T01:36:47;100123.38;;;18.65;100.00
11499;BME280;5806;48.748;9.278;2023-07-29T01:39:17;100127.92;;;18.58;100.00
11499;BME280;5806;48.748;9.278;2023-07-29T01:41:46;100122.44;;;18.56;100.00
11499;BME280;5806;48.748;9.278;2023-07-29T01:44:15;100117.12;;;18.59;100.00
11499;BME280;5806;48.748;9.278;2023-07-29T01:46:44;100114.07;;;18.58;100.00
11499;BME280;5806;48.748;9.278;2023-07-29T01:49:12;100113.08;;;18.54;100.00
11499;BME280;5806;48.748;9.278;2023-07-29T01:51:39;100100.75;;;18.60;100.00
11499;BME280;5806;48.748;9.278;2023-07-29T01:54:07;100105.77;;;18.58;100.00
11499;BME280;5806;48.748;9.278;2023-07-29T01:56:34;100108.59;;;18.56;100.00
11499;BME280;5806;48.748;9.278;2023-07-29T01:59:02;100107.27;;;18.53;100.00
11499;BME280;5806;48.748;9.278;2023-07-29T02:01:29;100115.20;;;18.57;100.00
11499;BME280;5806;48.748;9.278;2023-07-29T02:03:57;100114.34;;;18.59;100.00
11499;BME280;5806;48.748;9.278;2023-07-29T02:06:25;100120.33;;;18.64;100.00
11499;BME280;5806;48.748;9.278;2023-07-29T02:08:54;100112.55;;;18.66;100.00
11499;BME280;5806;48.748;9.278;2023-07-29T02:11:23;100112.79;;;18.67;100.00
11499;BME280;5806;48.748;9.278;2023-07-29T02:13:55;100109.89;;;18.61;100.00
11499;BME280;5806;48.748;9.278;2023-07-29T02:16:23;100119.83;;;18.62;100.00
11499;BME280;5806;48.748;9.278;2023-07-29T02:18:50;100130.86;;;18.64;100.00
11499;BME280;5806;48.748;9.278;2023-07-29T02:21:18;100116.09;;;18.55;100.00
11499;BME280;5806;48.748;9.278;2023-07-29T02:23:45;100087.27;;;18.56;100.00
11499;BME280;5806;48.748;9.278;2023-07-29T02:26:13;100088.34;;;18.58;100.00
11499;BME280;5806;48.748;9.278;2023-07-29T02:28:40;100098.39;;;18.67;100.00
11499;BME280;5806;48.748;9.278;2023-07-29T02:31:23;100098.94;;;18.67;100.00
11499;BME280;5806;48.748;9.278;2023-07-29T02:33:51;100097.09;;;18.62;100.00
11499;BME280;5806;48.748;9.278;2023-07-29T02:36:19;100107.98;;;18.59;100.00
11499;BME280;5806;48.748;9.278;2023-07-29T02:38:46;100100.63;;;18.65;100.00
11499;BME280;5806;48.748;9.278;2023-07-29T02:41:14;100101.22;;;18.65;100.00
11499;BME280;5806;48.748;9.278;2023-07-29T02:43:43;100094.37;;;18.60;100.00
11499;BME280;5806;48.748;9.278;2023-07-29T02:46:11;100092.13;;;18.62;100.00
11499;BME280;5806;48.748;9.278;2023-07-29T02:48:38;100099.92;;;18.60;100.00
11499;BME280;5806;48.748;9.278;2023-07-29T02:51:06;100113.77;;;18.60;100.00
11499;BME280;5806;48.748;9.278;2023-07-29T02:53:33;100113.02;;;18.57;100.00
11499;BME280;5806;48.748;9.278;2023-07-29T02:56:03;100114.66;;;18.58;100.00
11499;BME280;5806;48.748;9.278;2023-07-29T02:58:32;100122.66;;;18.59;100.00
11499;BME280;5806;48.748;9.278;2023-07-29T03:01:04;100115.73;;;18.59;100.00
11499;BME280;5806;48.748;9.278;2023-07-29T03:03:33;100113.27;;;18.58;100.00
11499;BME280;5806;48.748;9.278;2023-07-29T03:06:05;100111.94;;;18.55;100.00
11499;BME280;5806;48.748;9.278;2023-07-29T03:08:33;100112.50;;;18.55;100.00
11499;BME280;5806;48.748;9.278;2023-07-29T03:11:10;100107.27;;;18.53;100.00
11499;BME280;5806;48.748;9.278;2023-07-29T03:13:33;100104.44;;;18.56;100.00
11499;BME280;5806;48.748;9.278;2023-07-29T03:16:17;100110.55;;;18.55;100.00
11499;BME280;5806;48.748;9.278;2023-07-29T03:18:45;100105.33;;;18.54;100.00
11499;BME280;5806;48.748;9.278;2023-07-29T03:21:14;100108.34;;;18.55;100.00
11499;BME280;5806;48.748;9.278;2023-07-29T03:23:41;100106.28;;;18.60;100.00
11499;BME280;5806;48.748;9.278;2023-07-29T03:26:09;100095.82;;;18.57;100.00
11499;BME280;5806;48.748;9.278;2023-07-29T03:28:40;100089.91;;;18.61;100.00
11499;BME280;5806;48.748;9.278;2023-07-29T03:31:07;100087.76;;;18.58;100.00
11499;BME280;5806;48.748;9.278;2023-07-29T03:33:35;100095.20;;;18.60;100.00
11499;BME280;5806;48.748;9.278;2023-07-29T03:36:02;100101.61;;;18.58;100.00
11499;BME280;5806;48.748;9.278;2023-07-29T03:38:30;100091.61;;;18.60;100.00
11499;BME280;5806;48.748;9.278;2023-07-29T03:40:59;100089.98;;;18.59;100.00
11499;BME280;5806;48.748;9.278;2023-07-29T03:43:28;100089.61;;;18.63;100.00
11499;BME280;5806;48.748;9.278;2023-07-29T03:45:56;100100.86;;;18.55;100.00
11499;BME280;5806;48.748;9.278;2023-07-29T03:48:23;100096.55;;;18.49;100.00
11499;BME280;5806;48.748;9.278;2023-07-29T03:50:51;100101.72;;;18.53;100.00
11499;BME280;5806;48.748;9.278;2023-07-29T03:53:18;100105.57;;;18.55;100.00
11499;BME280;5806;48.748;9.278;2023-07-29T03:55:46;100107.20;;;18.56;100.00
11499;BME280;5806;48.748;9.278;2023-07-29T03:58:14;100104.00;;;18.51;100.00
11499;BME280;5806;48.748;9.278;2023-07-29T04:00:41;100095.47;;;18.48;100.00
11499;BME280;5806;48.748;9.278;2023-07-29T04:03:09;100099.91;;;18.49;100.00
11499;BME280;5806;48.748;9.278;2023-07-29T04:05:36;100099.62;;;18.48;100.00
11499;BME280;5806;48.748;9.278;2023-07-29T04:08:04;100079.49;;;18.45;100.00
11499;BME280;5806;48.748;9.278;2023-07-29T04:10:31;100091.90;;;18.47;100.00
11499;BME280;5806;48.748;9.278;2023-07-29T04:13:00;100104.24;;;18.52;100.00
11499;BME280;5806;48.748;9.278;2023-07-29T04:15:28;100095.10;;;18.52;100.00
11499;BME280;5806;48.748;9.278;2023-07-29T04:17:56;100101.72;;;18.53;100.00
11499;BME280;5806;48.748;9.278;2023-07-29T04:20:24;100113.47;;;18.48;100.00
11499;BME280;5806;48.748;9.278;2023-07-29T04:22:51;100122.25;;;18.52;100.00
11499;BME280;5806;48.748;9.278;2023-07-29T04:25:19;100120.67;;;18.49;100.00
11499;BME280;5806;48.748;9.278;2023-07-29T04:27:46;100115.32;;;18.52;100.00
11499;BME280;5806;48.748;9.278;2023-07-29T04:30:14;100103.64;;;18.42;100.00
11499;BME280;5806;48.748;9.278;2023-07-29T04:32:41;100114.05;;;18.47;100.00
11499;BME280;5806;48.748;9.278;2023-07-29T04:35:11;100120.14;;;18.47;100.00
11499;BME280;5806;48.748;9.278;2023-07-29T04:37:38;100124.16;;;18.41;100.00
11499;BME280;5806;48.748;9.278;2023-07-29T04:40:06;100115.98;;;18.47;100.00
11499;BME280;5806;48.748;9.278;2023-07-29T04:42:34;100116.59;;;18.44;100.00
11499;BME280;5806;48.748;9.278;2023-07-29T04:45:01;100107.24;;;18.42;100.00
11499;BME280;5806;48.748;9.278;2023-07-29T04:47:29;100104.20;;;18.41;100.00
11499;BME280;5806;48.748;9.278;2023-07-29T04:49:56;100111.23;;;18.36;100.00
11499;BME280;5806;48.748;9.278;2023-07-29T04:52:24;100131.16;;;18.36;100.00
11499;BME280;5806;48.748;9.278;2023-07-29T04:54:51;100144.09;;;18.40;100.00
11499;BME280;5806;48.748;9.278;2023-07-29T04:57:18;100154.63;;;18.41;100.00
11499;BME280;5806;48.748;9.278;2023-07-29T04:59:46;100155.42;;;18.41;100.00
11499;BME280;5806;48.748;9.278;2023-07-29T05:02:13;100154.67;;;18.38;100.00
11499;BME280;5806;48.748;9.278;2023-07-29T05:04:41;100148.66;;;18.34;100.00
11499;BME280;5806;48.748;9.278;2023-07-29T05:07:09;100142.52;;;18.37;100.00
11499;BME280;5806;48.748;9.278;2023-07-29T05:09:36;100136.15;;;18.36;100.00
11499;BME280;5806;48.748;9.278;2023-07-29T05:12:06;100133.91;;;18.38;100.00
11499;BME280;5806;48.748;9.278;2023-07-29T05:14:52;100138.86;;;18.39;100.00
11499;BME280;5806;48.748;9.278;2023-07-29T05:17:19;100133.55;;;18.42;100.00
11499;BME280;5806;48.748;9.278;2023-07-29T05:19:47;100134.95;;;18.40;100.00
11499;BME280;5806;48.748;9.278;2023-07-29T05:22:15;100132.55;;;18.36;100.00
11499;BME280;5806;48.748;9.278;2023-07-29T05:24:42;100136.87;;;18.42;100.00
11499;BME280;5806;48.748;9.278;2023-07-29T05:27:10;100130.05;;;18.37;100.00
11499;BME280;5806;48.748;9.278;2023-07-29T05:29:37;100125.63;;;18.36;100.00
11499;BME280;5806;48.748;9.278;2023-07-29T05:32:05;100130.05;;;18.37;100.00
11499;BME280;5806;48.748;9.278;2023-07-29T05:34:33;100130.25;;;18.40;100.00
11499;BME280;5806;48.748;9.278;2023-07-29T05:37:00;100129.39;;;18.42;100.00
11499;BME280;5806;48.748;9.278;2023-07-29T05:39:28;100135.98;;;18.44;100.00
11499;BME280;5806;48.748;9.278;2023-07-29T05:41:55;100144.70;;;18.51;100.00
11499;BME280;5806;48.748;9.278;2023-07-29T05:44:23;100155.42;;;18.55;100.00
11499;BME280;5806;48.748;9.278;2023-07-29T05:46:50;100162.70;;;18.51;100.00
11499;BME280;5806;48.748;9.278;2023-07-29T05:49:18;100169.02;;;18.54;100.00
11499;BME280;5806;48.748;9.278;2023-07-29T05:51:45;100177.58;;;18.55;100.00
11499;BME280;5806;48.748;9.278;2023-07-29T05:54:13;100171.55;;;18.53;100.00
11499;BME280;5806;48.748;9.278;2023-07-29T05:56:40;100169.02;;;18.54;100.00
11499;BME280;5806;48.748;9.278;2023-07-29T05:59:07;100167.64;;;18.54;100.00
11499;BME280;5806;48.748;9.278;2023-07-29T06:01:35;100172.63;;;18.54;100.00
11499;BME280;5806;48.748;9.278;2023-07-29T06:04:02;100179.50;;;18.57;100.00
11499;BME280;5806;48.748;9.278;2023-07-29T06:06:30;100178.86;;;18.60;100.00
11499;BME280;5806;48.748;9.278;2023-07-29T06:08:57;100181.62;;;18.60;100.00
11499;BME280;5806;48.748;9.278;2023-07-29T06:11:25;100189.33;;;18.63;100.00
11499;BME280;5806;48.748;9.278;2023-07-29T06:13:52;100185.06;;;18.68;100.00
11499;BME280;5806;48.748;9.278;2023-07-29T06:16:20;100198.00;;;18.72;100.00
11499;BME280;5806;48.748;9.278;2023-07-29T06:18:47;100207.45;;;18.71;100.00
11499;BME280;5806;48.748;9.278;2023-07-29T06:21:14;100209.94;;;18.70;100.00
11499;BME280;5806;48.748;9.278;2023-07-29T06:23:43;100207.09;;;18.75;100.00
11499;BME280;5806;48.748;9.278;2023-07-29T06:26:11;100211.30;;;18.73;100.00
11499;BME280;5806;48.748;9.278;2023-07-29T06:28:38;100217.45;;;18.70;100.00
11499;BME280;5806;48.748;9.278;2023-07-29T06:31:06;100207.89;;;18.76;100.00
11499;BME280;5806;48.748;9.278;2023-07-29T06:33:33;100215.17;;;18.72;100.00
11499;BME280;5806;48.748;9.278;2023-07-29T06:36:01;100217.20;;;18.69;100.00
11499;BME280;5806;48.748;9.278;2023-07-29T06:38:28;100230.52;;;18.67;100.00
11499;BME280;5806;48.748;9.278;2023-07-29T06:40:55;100226.06;;;18.68;100.00
11499;BME280;5806;48.748;9.278;2023-07-29T06:43:23;100234.73;;;18.64;100.00
11499;BME280;5806;48.748;9.278;2023-07-29T06:45:50;100236.47;;;18.60;100.00
11499;BME280;5806;48.748;9.278;2023-07-29T06:48:18;100238.52;;;18.55;100.00
11499;BME280;5806;48.748;9.278;2023-07-29T06:50:46;100232.70;;;18.40;100.00
11499;BME280;5806;48.748;9.278;2023-07-29T06:53:13;100229.63;;;18.42;100.00
11499;BME280;5806;48.748;9.278;2023-07-29T06:55:41;100222.53;;;18.36;100.00
11499;BME280;5806;48.748;9.278;2023-07-29T06:58:08;100231.13;;;18.37;100.00
11499;BME280;5806;48.748;9.278;2023-07-29T07:00:36;100229.42;;;18.22;100.00
11499;BME280;5806;48.748;9.278;2023-07-29T07:03:03;100228.49;;;18.27;100.00
11499;BME280;5806;48.748;9.278;2023-07-29T07:05:31;100235.21;;;18.23;100.00
11499;BME280;5806;48.748;9.278;2023-07-29T07:07:58;100227.55;;;18.18;100.00
11499;BME280;5806;48.748;9.278;2023-07-29T07:10:26;100228.59;;;18.22;100.00
11499;BME280;5806;48.748;9.278;2023-07-29T07:12:53;100229.42;;;18.22;100.00
11499;BME280;5806;48.748;9.278;2023-07-29T07:15:21;100230.13;;;18.28;100.00
11499;BME280;5806;48.748;9.278;2023-07-29T07:17:48;100230.76;;;18.25;100.00
11499;BME280;5806;48.748;9.278;2023-07-29T07:20:16;100228.39;;;18.32;100.00
11499;BME280;5806;48.748;9.278;2023-07-29T07:22:44;100230.82;;;18.38;100.00
11499;BME280;5806;48.748;9.278;2023-07-29T07:25:11;100230.41;;;18.45;100.00
11499;BME280;5806;48.748;9.278;2023-07-29T07:27:38;100236.00;;;18.56;100.00
11499;BME280;5806;48.748;9.278;2023-07-29T07:30:07;100229.14;;;18.67;100.00
11499;BME280;5806;48.748;9.278;2023-07-29T07:32:34;100237.91;;;18.58;100.00
11499;BME280;5806;48.748;9.278;2023-07-29T07:35:02;100243.81;;;18.54;100.00
11499;BME280;5806;48.748;9.278;2023-07-29T07:37:30;100241.14;;;18.49;100.00
11499;BME280;5806;48.748;9.278;2023-07-29T07:39:58;100248.81;;;18.52;100.00
11499;BME280;5806;48.748;9.278;2023-07-29T07:42:25;100241.27;;;18.41;100.00
11499;BME280;5806;48.748;9.278;2023-07-29T07:44:52;100244.75;;;18.31;100.00
11499;BME280;5806;48.748;9.278;2023-07-29T07:47:20;100241.66;;;18.35;100.00
11499;BME280;5806;48.748;9.278;2023-07-29T07:49:47;100238.48;;;18.25;100.00
11499;BME280;5806;48.748;9.278;2023-07-29T07:52:16;100244.19;;;18.34;100.00
11499;BME280;5806;48.748;9.278;2023-07-29T07:54:44;100246.00;;;18.41;100.00
11499;BME280;5806;48.748;9.278;2023-07-29T07:57:11;100248.19;;;18.41;100.00
11499;BME280;5806;48.748;9.278;2023-07-29T07:59:38;100256.88;;;18.51;100.00
11499;BME280;5806;48.748;9.278;2023-07-29T08:02:06;100260.75;;;18.66;100.00
11499;BME280;5806;48.748;9.278;2023-07-29T08:04:33;100261.91;;;18.62;100.00
11499;BME280;5806;48.748;9.278;2023-07-29T08:07:01;100253.39;;;18.59;100.00
11499;BME280;5806;48.748;9.278;2023-07-29T08:09:28;100250.25;;;18.49;100.00
11499;BME280;5806;48.748;9.278;2023-07-29T08:11:56;100251.58;;;18.52;100.00
11499;BME280;5806;48.748;9.278;2023-07-29T08:14:23;100249.75;;;18.47;100.00
11499;BME280;5806;48.748;9.278;2023-07-29T08:16:51;100248.74;;;18.57;98.01
11499;BME280;5806;48.748;9.278;2023-07-29T08:19:18;100243.56;;;18.53;96.21
11499;BME280;5806;48.748;9.278;2023-07-29T08:21:45;100244.19;;;18.34;100.00
11499;BME280;5806;48.748;9.278;2023-07-29T08:24:13;100235.33;;;18.34;100.00
11499;BME280;5806;48.748;9.278;2023-07-29T08:26:40;100241.44;;;18.47;100.00
11499;BME280;5806;48.748;9.278;2023-07-29T08:29:08;100241.56;;;18.40;100.00
11499;BME280;5806;48.748;9.278;2023-07-29T08:31:35;100242.97;;;18.53;100.00
11499;BME280;5806;48.748;9.278;2023-07-29T08:34:02;100242.92;;;18.56;100.00
11499;BME280;5806;48.748;9.278;2023-07-29T08:36:30;100248.34;;;18.63;97.60
11499;BME280;5806;48.748;9.278;2023-07-29T08:38:57;100255.91;;;18.58;99.72
11499;BME280;5806;48.748;9.278;2023-07-29T08:41:54;100260.45;;;18.67;95.94
11499;BME280;5806;48.748;9.278;2023-07-29T08:44:22;100256.19;;;18.86;87.96
11499;BME280;5806;48.748;9.278;2023-07-29T08:46:51;100256.25;;;18.97;88.73
11499;BME280;5806;48.748;9.278;2023-07-29T08:49:20;100252.03;;;18.86;90.74
11499;BME280;5806;48.748;9.278;2023-07-29T08:51:50;100253.78;;;18.82;91.77
11499;BME280;5806;48.748;9.278;2023-07-29T08:54:19;100257.21;;;18.76;94.78
11499;BME280;5806;48.748;9.278;2023-07-29T08:56:47;100264.66;;;18.65;96.60
11499;BME280;5806;48.748;9.278;2023-07-29T08:59:14;100262.41;;;18.51;100.00
11499;BME280;5806;48.748;9.278;2023-07-29T09:01:44;100260.92;;;18.56;94.70
11499;BME280;5806;48.748;9.278;2023-07-29T09:04:12;100269.92;;;18.50;95.64
11499;BME280;5806;48.748;9.278;2023-07-29T09:06:40;100272.07;;;18.37;100.00
11499;BME280;5806;48.748;9.278;2023-07-29T09:09:09;100269.14;;;18.47;97.92
11499;BME280;5806;48.748;9.278;2023-07-29T09:11:37;100275.09;;;18.68;95.33
11499;BME280;5806;48.748;9.278;2023-07-29T09:14:04;100268.55;;;18.77;93.82
11499;BME280;5806;48.748;9.278;2023-07-29T09:16:32;100269.55;;;18.68;98.46
11499;BME280;5806;48.748;9.278;2023-07-29T09:19:03;100267.02;;;18.71;96.52
11499;BME280;5806;48.748;9.278;2023-07-29T09:21:32;100276.84;;;18.64;100.00
11499;BME280;5806;48.748;9.278;2023-07-29T09:24:04;100274.47;;;18.57;100.00
11499;BME280;5806;48.748;9.278;2023-07-29T09:26:34;100271.65;;;18.60;100.00
11499;BME280;5806;48.748;9.278;2023-07-29T09:29:02;100273.52;;;18.64;100.00
11499;BME280;5806;48.748;9.278;2023-07-29T09:31:29;100276.48;;;18.68;100.00
11499;BME280;5806;48.748;9.278;2023-07-29T09:33:59;100270.39;;;18.68;98.68
11499;BME280;5806;48.748;9.278;2023-07-29T09:36:27;100268.38;;;18.58;100.00
11499;BME280;5806;48.748;9.278;2023-07-29T09:38:55;100258.16;;;18.56;100.00
11499;BME280;5806;48.748;9.278;2023-07-29T09:41:24;100271.42;;;18.72;99.06
11499;BME280;5806;48.748;9.278;2023-07-29T09:44:03;100272.75;;;18.75;94.72
11499;BME280;5806;48.748;9.278;2023-07-29T09:46:36;100280.34;;;18.69;95.31
11499;BME280;5806;48.748;9.278;2023-07-29T09:49:05;100278.70;;;18.68;95.90
11499;BME280;5806;48.748;9.278;2023-07-29T09:51:40;100284.49;;;18.69;96.42
11499;BME280;5806;48.748;9.278;2023-07-29T09:54:08;100279.78;;;18.70;99.72
11499;BME280;5806;48.748;9.278;2023-07-29T09:56:39;100285.68;;;18.66;100.00
11499;BME280;5806;48.748;9.278;2023-07-29T09:59:06;100275.02;;;18.73;100.00
11499;BME280;5806;48.748;9.278;2023-07-29T10:01:34;100277.10;;;18.78;100.00
11499;BME280;5806;48.748;9.278;2023-07-29T10:04:03;100278.80;;;18.90;100.00
11499;BME280;5806;48.748;9.278;2023-07-29T10:06:34;100278.80;;;18.90;100.00
11499;BME280;5806;48.748;9.278;2023-07-29T10:09:02;100277.64;;;18.94;100.00
11499;BME280;5806;48.748;9.278;2023-07-29T10:11:30;100281.39;;;19.00;100.00
11499;BME280;5806;48.748;9.278;2023-07-29T10:13:58;100286.34;;;19.14;98.38
11499;BME280;5806;48.748;9.278;2023-07-29T10:16:27;100291.35;;;19.42;100.00
11499;BME280;5806;48.748;9.278;2023-07-29T10:18:56;100298.35;;;19.51;100.00
11499;BME280;5806;48.748;9.278;2023-07-29T10:21:24;100299.36;;;19.44;98.76
11499;BME280;5806;48.748;9.278;2023-07-29T10:23:53;100297.09;;;19.46;99.88
11499;BME280;5806;48.748;9.278;2023-07-29T10:26:22;100294.37;;;19.43;95.45
11499;BME280;5806;48.748;9.278;2023-07-29T10:28:52;100292.98;;;19.43;98.69
11499;BME280;5806;48.748;9.278;2023-07-29T10:31:22;100295.45;;;19.45;96.51
11499;BME280;5806;48.748;9.278;2023-07-29T10:33:50;100298.16;;;19.47;95.91
11499;BME280;5806;48.748;9.278;2023-07-29T10:36:19;100295.14;;;19.46;97.54
11499;BME280;5806;48.748;9.278;2023-07-29T10:38:47;100295.14;;;19.46;97.54
11499;BME280;5806;48.748;9.278;2023-07-29T10:41:14;100294.20;;;19.37;99.59
11499;BME280;5806;48.748;9.278;2023-07-29T10:43:42;100291.86;;;19.31;93.95
11499;BME280;5806;48.748;9.278;2023-07-29T10:46:22;100292.00;;;19.23;91.52
11499;BME280;5806;48.748;9.278;2023-07-29T10:48:52;100294.30;;;19.18;90.33
11499;BME280;5806;48.748;9.278;2023-07-29T10:51:30;100294.00;;;19.06;96.11
11499;BME280;5806;48.748;9.278;2023-07-29T10:54:09;100300.23;;;19.01;96.19
11499;BME280;5806;48.748;9.278;2023-07-29T10:56:34;100296.63;;;19.00;96.21
11499;BME280;5806;48.748;9.278;2023-07-29T11:01:54;100300.59;;;18.97;95.61
11499;BME280;5806;48.748;9.278;2023-07-29T11:04:29;100301.14;;;18.96;90.86
11499;BME280;5806;48.748;9.278;2023-07-29T11:17:57;100287.65;;;19.19;93.84
11499;BME280;5806;48.748;9.278;2023-07-29T11:20:29;100289.34;;;19.18;95.94
11499;BME280;5806;48.748;9.278;2023-07-29T11:23:04;100287.01;;;19.22;93.90
11499;BME280;5806;48.748;9.278;2023-07-29T11:25:32;100287.13;;;19.17;93.86
11499;BME280;5806;48.748;9.278;2023-07-29T11:28:03;100291.50;;;19.21;95.62
11499;BME280;5806;48.748;9.278;2023-07-29T11:30:30;100288.45;;;19.20;95.12
11499;BME280;5806;48.748;9.278;2023-07-29T11:32:59;100286.45;;;19.23;94.50
11499;BME280;5806;48.748;9.278;2023-07-29T11:35:27;100286.33;;;19.17;90.31
11499;BME280;5806;48.748;9.278;2023-07-29T11:37:55;100281.77;;;19.24;92.11
11499;BME280;5806;48.748;9.278;2023-07-29T11:40:25;100276.48;;;19.25;93.25
11499;BME280;5806;48.748;9.278;2023-07-29T11:42:53;100284.41;;;19.42;91.46
11499;BME280;5806;48.748;9.278;2023-07-29T11:45:22;100278.50;;;19.57;92.94
11499;BME280;5806;48.748;9.278;2023-07-29T11:47:50;100279.45;;;19.88;93.16
11499;BME280;5806;48.748;9.278;2023-07-29T11:50:17;100273.59;;;20.01;89.16
11499;BME280;5806;48.748;9.278;2023-07-29T11:52:46;100273.77;;;19.93;91.22
11499;BME280;5806;48.748;9.278;2023-07-29T11:55:14;100276.39;;;20.23;87.67
11499;BME280;5806;48.748;9.278;2023-07-29T11:57:43;100276.39;;;20.23;87.67
11499;BME280;5806;48.748;9.278;2023-07-29T12:00:11;100279.44;;;20.13;87.56
11499;BME280;5806;48.748;9.278;2023-07-29T12:02:42;100262.33;;;20.19;89.21
11499;BME280;5806;48.748;9.278;2023-07-29T12:05:14;100274.30;;;20.28;85.08
11499;BME280;5806;48.748;9.278;2023-07-29T12:07:43;100282.95;;;20.16;84.88
11499;BME280;5806;48.748;9.278;2023-07-29T12:10:12;100274.89;;;20.17;84.57
11499;BME280;5806;48.748;9.278;2023-07-29T12:12:45;100274.89;;;20.17;84.57
11499;BME280;5806;48.748;9.278;2023-07-29T12:15:10;100271.45;;;20.20;83.60
11499;BME280;5806;48.748;9.278;2023-07-29T12:17:41;100268.64;;;20.11;83.40
11499;BME280;5806;48.748;9.278;2023-07-29T12:20:09;100268.02;;;20.14;84.55
11499;BME280;5806;48.748;9.278;2023-07-29T12:22:37;100272.74;;;20.14;85.73
11499;BME280;5806;48.748;9.278;2023-07-29T12:25:05;100264.34;;;20.16;81.26
11499;BME280;5806;48.748;9.278;2023-07-29T12:27:33;100265.34;;;20.20;82.48
11499;BME280;5806;48.748;9.278;2023-07-29T12:30:02;100256.10;;;20.44;81.26
11499;BME280;5806;48.748;9.278;2023-07-29T12:32:32;100259.72;;;20.64;84.26
11499;BME280;5806;48.748;9.278;2023-07-29T12:34:59;100260.17;;;20.69;85.31
11499;BME280;5806;48.748;9.278;2023-07-29T12:37:33;100254.09;;;20.47;86.48
11499;BME280;5806;48.748;9.278;2023-07-29T12:40:00;100247.75;;;20.55;84.74
11499;BME280;5806;48.748;9.278;2023-07-29T12:42:27;100244.51;;;20.81;77.74
11499;BME280;5806;48.748;9.278;2023-07-29T12:44:55;100235.53;;;20.84;76.49
11499;BME280;5806;48.748;9.278;2023-07-29T12:47:22;100232.59;;;21.00;77.39
11499;BME280;5806;48.748;9.278;2023-07-29T12:49:50;100238.97;;;20.70;81.59
11499;BME280;5806;48.748;9.278;2023-07-29T12:52:17;100234.42;;;21.05;79.17
11499;BME280;5806;48.748;9.278;2023-07-29T12:54:44;100237.72;;;20.96;77.66
11499;BME280;5806;48.748;9.278;2023-07-29T12:57:12;100244.97;;;20.75;78.94
11499;BME280;5806;48.748;9.278;2023-07-29T12:59:39;100240.05;;;20.72;77.45
11499;BME280;5806;48.748;9.278;2023-07-29T13:02:07;100238.97;;;20.70;77.71
11499;BME280;5806;48.748;9.278;2023-07-29T13:04:35;100234.03;;;20.59;77.27
11499;BME280;5806;48.748;9.278;2023-07-29T13:07:02;100233.73;;;20.49;77.29
11499;BME280;5806;48.748;9.278;2023-07-29T13:09:30;100247.22;;;20.45;79.45
11499;BME280;5806;48.748;9.278;2023-07-29T13:11:57;100232.25;;;20.43;78.50
11499;BME280;5806;48.748;9.278;2023-07-29T13:14:24;100239.59;;;20.59;77.53
11499;BME280;5806;48.748;9.278;2023-07-29T13:16:52;100228.07;;;20.82;77.69